sensor_id;sensor_type;location;lat;lon;timestamp;P1;durP1;ratioP1;P2;durP2;ratioP2
40997;SDS011;26740;45.944;12.480;2023-07-13T00:00:10;8.40;;;1.33;;
40997;SDS011;26740;45.944;12.480;2023-07-13T00:02:35;3.97;;;1.00;;
40997;SDS011;26740;45.944;12.480;2023-07-13T00:05:01;6.18;;;0.80;;
40997;SDS011;26740;45.944;12.480;2023-07-13T00:07:26;1.77;;;0.63;;
40997;SDS011;26740;45.944;12.480;2023-07-13T00:09:51;6.03;;;1.15;;
40997;SDS011;26740;45.944;12.480;2023-07-13T00:12:25;5.82;;;0.70;;
40997;SDS011;26740;45.944;12.480;2023-07-13T00:14:50;2.53;;;0.52;;
40997;SDS011;26740;45.944;12.480;2023-07-13T00:17:16;4.22;;;0.73;;
40997;SDS011;26740;45.944;12.480;2023-07-13T00:19:42;2.47;;;0.82;;
40997;SDS011;26740;45.944;12.480;2023-07-13T00:22:07;3.22;;;0.50;;
40997;SDS011;26740;45.944;12.480;2023-07-13T00:24:32;3.95;;;0.75;;
40997;SDS011;26740;45.944;12.480;2023-07-13T00:26:58;2.55;;;0.93;;
40997;SDS011;26740;45.944;12.480;2023-07-13T00:29:25;2.25;;;0.57;;
40997;SDS011;26740;45.944;12.480;2023-07-13T00:31:51;2.90;;;0.50;;
40997;SDS011;26740;45.944;12.480;2023-07-13T00:34:16;5.68;;;0.90;;
40997;SDS011;26740;45.944;12.480;2023-07-13T00:36:41;1.25;;;0.57;;
40997;SDS011;26740;45.944;12.480;2023-07-13T00:39:07;2.28;;;0.82;;
40997;SDS011;26740;45.944;12.480;2023-07-13T00:41:32;5.32;;;0.60;;
40997;SDS011;26740;45.944;12.480;2023-07-13T00:43:58;6.00;;;0.90;;
40997;SDS011;26740;45.944;12.480;2023-07-13T00:48:49;3.55;;;1.00;;
40997;SDS011;26740;45.944;12.480;2023-07-13T00:51:17;3.63;;;0.75;;
40997;SDS011;26740;45.944;12.480;2023-07-13T00:53:43;4.97;;;1.23;;
40997;SDS011;26740;45.944;12.480;2023-07-13T00:56:09;3.25;;;0.93;;
40997;SDS011;26740;45.944;12.480;2023-07-13T00:58:35;4.72;;;1.00;;
40997;SDS011;26740;45.944;12.480;2023-07-13T01:01:01;1.60;;;0.77;;
40997;SDS011;26740;45.944;12.480;2023-07-13T01:03:26;4.75;;;1.00;;
40997;SDS011;26740;45.944;12.480;2023-07-13T01:05:51;4.63;;;1.45;;
40997;SDS011;26740;45.944;12.480;2023-07-13T01:08:19;3.75;;;1.20;;
40997;SDS011;26740;45.944;12.480;2023-07-13T01:10:54;4.13;;;1.40;;
40997;SDS011;26740;45.944;12.480;2023-07-13T01:13:20;8.15;;;1.20;;
40997;SDS011;26740;45.944;12.480;2023-07-13T01:15:46;3.13;;;1.23;;
40997;SDS011;26740;45.944;12.480;2023-07-13T01:18:14;3.47;;;1.00;;
40997;SDS011;26740;45.944;12.480;2023-07-13T01:20:41;3.60;;;0.90;;
40997;SDS011;26740;45.944;12.480;2023-07-13T01:23:07;2.13;;;1.08;;
40997;SDS011;26740;45.944;12.480;2023-07-13T01:25:34;2.60;;;1.00;;
40997;SDS011;26740;45.944;12.480;2023-07-13T01:28:00;2.50;;;1.20;;
40997;SDS011;26740;45.944;12.480;2023-07-13T01:30:25;5.55;;;1.23;;
40997;SDS011;26740;45.944;12.480;2023-07-13T01:32:50;4.43;;;0.80;;
40997;SDS011;26740;45.944;12.480;2023-07-13T01:35:16;4.47;;;1.00;;
40997;SDS011;26740;45.944;12.480;2023-07-13T01:37:41;3.42;;;1.05;;
40997;SDS011;26740;45.944;12.480;2023-07-13T01:40:07;6.15;;;0.77;;
40997;SDS011;26740;45.944;12.480;2023-07-13T01:42:33;6.30;;;1.70;;
40997;SDS011;26740;45.944;12.480;2023-07-13T01:44:59;2.72;;;0.95;;
40997;SDS011;26740;45.944;12.480;2023-07-13T01:47:24;2.05;;;0.93;;
40997;SDS011;26740;45.944;12.480;2023-07-13T01:49:51;4.93;;;0.68;;
40997;SDS011;26740;45.944;12.480;2023-07-13T01:52:17;1.55;;;0.52;;
40997;SDS011;26740;45.944;12.480;2023-07-13T01:54:42;6.22;;;1.15;;
40997;SDS011;26740;45.944;12.480;2023-07-13T01:57:08;1.73;;;0.63;;
40997;SDS011;26740;45.944;12.480;2023-07-13T01:59:33;4.50;;;1.20;;
40997;SDS011;26740;45.944;12.480;2023-07-13T02:01:59;6.63;;;1.55;;
40997;SDS011;26740;45.944;12.480;2023-07-13T02:04:24;3.50;;;0.95;;
40997;SDS011;26740;45.944;12.480;2023-07-13T02:06:50;3.40;;;1.08;;
40997;SDS011;26740;45.944;12.480;2023-07-13T02:09:15;1.42;;;0.82;;
40997;SDS011;26740;45.944;12.480;2023-07-13T02:11:40;5.13;;;1.40;;
40997;SDS011;26740;45.944;12.480;2023-07-13T02:14:06;5.63;;;1.52;;
40997;SDS011;26740;45.944;12.480;2023-07-13T02:16:31;3.83;;;1.42;;
40997;SDS011;26740;45.944;12.480;2023-07-13T02:18:56;6.00;;;1.08;;
40997;SDS011;26740;45.944;12.480;2023-07-13T02:21:22;2.45;;;0.75;;
40997;SDS011;26740;45.944;12.480;2023-07-13T02:23:48;4.20;;;0.98;;
40997;SDS011;26740;45.944;12.480;2023-07-13T02:26:14;4.85;;;1.33;;
40997;SDS011;26740;45.944;12.480;2023-07-13T02:28:39;4.47;;;1.08;;
40997;SDS011;26740;45.944;12.480;2023-07-13T02:31:09;4.40;;;0.95;;
40997;SDS011;26740;45.944;12.480;2023-07-13T02:33:35;8.70;;;1.67;;
40997;SDS011;26740;45.944;12.480;2023-07-13T02:36:00;1.38;;;1.08;;
40997;SDS011;26740;45.944;12.480;2023-07-13T02:38:25;1.50;;;0.85;;
40997;SDS011;26740;45.944;12.480;2023-07-13T02:40:51;4.90;;;1.15;;
40997;SDS011;26740;45.944;12.480;2023-07-13T02:43:16;3.67;;;1.40;;
40997;SDS011;26740;45.944;12.480;2023-07-13T02:45:45;2.97;;;1.35;;
40997;SDS011;26740;45.944;12.480;2023-07-13T02:48:11;4.25;;;1.33;;
40997;SDS011;26740;45.944;12.480;2023-07-13T02:50:36;3.13;;;0.88;;
40997;SDS011;26740;45.944;12.480;2023-07-13T02:53:01;3.85;;;1.52;;
40997;SDS011;26740;45.944;12.480;2023-07-13T02:55:27;2.72;;;1.10;;
40997;SDS011;26740;45.944;12.480;2023-07-13T02:57:52;4.10;;;1.30;;
40997;SDS011;26740;45.944;12.480;2023-07-13T03:00:19;3.38;;;1.15;;
40997;SDS011;26740;45.944;12.480;2023-07-13T03:02:44;4.40;;;1.02;;
40997;SDS011;26740;45.944;12.480;2023-07-13T03:05:10;4.35;;;1.23;;
40997;SDS011;26740;45.944;12.480;2023-07-13T03:07:38;3.75;;;1.08;;
40997;SDS011;26740;45.944;12.480;2023-07-13T03:10:03;4.15;;;1.30;;
40997;SDS011;26740;45.944;12.480;2023-07-13T03:12:28;2.45;;;0.80;;
40997;SDS011;26740;45.944;12.480;2023-07-13T03:14:54;5.07;;;1.73;;
40997;SDS011;26740;45.944;12.480;2023-07-13T03:17:19;4.25;;;1.00;;
40997;SDS011;26740;45.944;12.480;2023-07-13T03:19:45;2.97;;;1.02;;
40997;SDS011;26740;45.944;12.480;2023-07-13T03:22:14;5.50;;;1.13;;
40997;SDS011;26740;45.944;12.480;2023-07-13T03:24:40;5.43;;;0.98;;
40997;SDS011;26740;45.944;12.480;2023-07-13T03:27:05;3.05;;;1.00;;
40997;SDS011;26740;45.944;12.480;2023-07-13T03:29:31;3.45;;;0.50;;
40997;SDS011;26740;45.944;12.480;2023-07-13T03:31:56;2.10;;;0.90;;
40997;SDS011;26740;45.944;12.480;2023-07-13T03:34:22;2.58;;;1.00;;
40997;SDS011;26740;45.944;12.480;2023-07-13T03:36:47;2.17;;;0.85;;
40997;SDS011;26740;45.944;12.480;2023-07-13T03:39:13;3.20;;;0.93;;
40997;SDS011;26740;45.944;12.480;2023-07-13T03:41:38;2.35;;;1.05;;
40997;SDS011;26740;45.944;12.480;2023-07-13T03:44:04;4.65;;;1.00;;
40997;SDS011;26740;45.944;12.480;2023-07-13T03:46:29;5.07;;;0.73;;
40997;SDS011;26740;45.944;12.480;2023-07-13T03:48:55;3.88;;;0.88;;
40997;SDS011;26740;45.944;12.480;2023-07-13T03:51:20;2.63;;;0.95;;
40997;SDS011;26740;45.944;12.480;2023-07-13T03:53:46;2.08;;;0.80;;
40997;SDS011;26740;45.944;12.480;2023-07-13T03:56:13;2.05;;;0.85;;
40997;SDS011;26740;45.944;12.480;2023-07-13T03:58:41;4.47;;;1.15;;
40997;SDS011;26740;45.944;12.480;2023-07-13T04:01:07;4.38;;;0.60;;
40997;SDS011;26740;45.944;12.480;2023-07-13T04:03:34;2.72;;;0.55;;
40997;SDS011;26740;45.944;12.480;2023-07-13T04:06:00;4.15;;;1.00;;
40997;SDS011;26740;45.944;12.480;2023-07-13T04:08:30;4.63;;;0.65;;
40997;SDS011;26740;45.944;12.480;2023-07-13T04:10:56;1.33;;;0.65;;
40997;SDS011;26740;45.944;12.480;2023-07-13T04:13:21;3.70;;;1.20;;
40997;SDS011;26740;45.944;12.480;2023-07-13T04:15:47;6.53;;;1.23;;
40997;SDS011;26740;45.944;12.480;2023-07-13T04:18:12;4.03;;;0.70;;
40997;SDS011;26740;45.944;12.480;2023-07-13T04:20:38;3.78;;;0.93;;
40997;SDS011;26740;45.944;12.480;2023-07-13T04:23:03;5.10;;;1.42;;
40997;SDS011;26740;45.944;12.480;2023-07-13T04:25:29;2.38;;;0.93;;
40997;SDS011;26740;45.944;12.480;2023-07-13T04:27:54;2.88;;;0.90;;
40997;SDS011;26740;45.944;12.480;2023-07-13T04:30:20;7.50;;;1.40;;
40997;SDS011;26740;45.944;12.480;2023-07-13T04:32:45;2.92;;;0.80;;
40997;SDS011;26740;45.944;12.480;2023-07-13T04:35:11;3.15;;;0.80;;
40997;SDS011;26740;45.944;12.480;2023-07-13T04:37:36;5.85;;;0.95;;
40997;SDS011;26740;45.944;12.480;2023-07-13T04:40:02;1.58;;;0.50;;
40997;SDS011;26740;45.944;12.480;2023-07-13T04:42:28;3.65;;;0.70;;
40997;SDS011;26740;45.944;12.480;2023-07-13T04:44:54;5.38;;;1.20;;
40997;SDS011;26740;45.944;12.480;2023-07-13T04:47:20;7.88;;;1.05;;
40997;SDS011;26740;45.944;12.480;2023-07-13T04:49:45;1.67;;;0.80;;
40997;SDS011;26740;45.944;12.480;2023-07-13T04:52:11;2.90;;;0.57;;
40997;SDS011;26740;45.944;12.480;2023-07-13T04:54:37;5.47;;;1.05;;
40997;SDS011;26740;45.944;12.480;2023-07-13T04:57:03;3.13;;;0.70;;
40997;SDS011;26740;45.944;12.480;2023-07-13T04:59:31;2.35;;;0.52;;
40997;SDS011;26740;45.944;12.480;2023-07-13T05:01:56;1.92;;;0.47;;
40997;SDS011;26740;45.944;12.480;2023-07-13T05:04:22;2.15;;;0.60;;
40997;SDS011;26740;45.944;12.480;2023-07-13T05:06:47;4.82;;;0.95;;
40997;SDS011;26740;45.944;12.480;2023-07-13T05:09:13;3.22;;;0.73;;
40997;SDS011;26740;45.944;12.480;2023-07-13T05:11:38;4.32;;;0.47;;
40997;SDS011;26740;45.944;12.480;2023-07-13T05:14:04;5.30;;;0.52;;
40997;SDS011;26740;45.944;12.480;2023-07-13T05:16:30;5.00;;;0.60;;
40997;SDS011;26740;45.944;12.480;2023-07-13T05:18:57;4.20;;;0.50;;
40997;SDS011;26740;45.944;12.480;2023-07-13T05:21:22;3.10;;;0.40;;
40997;SDS011;26740;45.944;12.480;2023-07-13T05:23:47;2.90;;;0.82;;
40997;SDS011;26740;45.944;12.480;2023-07-13T05:26:13;1.25;;;0.52;;
40997;SDS011;26740;45.944;12.480;2023-07-13T05:28:38;3.45;;;0.93;;
40997;SDS011;26740;45.944;12.480;2023-07-13T05:31:04;3.22;;;0.77;;
40997;SDS011;26740;45.944;12.480;2023-07-13T05:33:29;4.20;;;0.52;;
40997;SDS011;26740;45.944;12.480;2023-07-13T05:35:55;3.53;;;0.38;;
40997;SDS011;26740;45.944;12.480;2023-07-13T05:38:20;4.47;;;0.50;;
40997;SDS011;26740;45.944;12.480;2023-07-13T05:40:46;4.43;;;0.40;;
40997;SDS011;26740;45.944;12.480;2023-07-13T05:43:12;2.63;;;0.40;;
40997;SDS011;26740;45.944;12.480;2023-07-13T05:45:37;2.20;;;0.20;;
40997;SDS011;26740;45.944;12.480;2023-07-13T05:48:03;2.05;;;0.20;;
40997;SDS011;26740;45.944;12.480;2023-07-13T05:50:28;1.27;;;0.22;;
40997;SDS011;26740;45.944;12.480;2023-07-13T05:52:54;4.30;;;0.57;;
40997;SDS011;26740;45.944;12.480;2023-07-13T05:55:20;2.95;;;0.40;;
40997;SDS011;26740;45.944;12.480;2023-07-13T05:57:45;2.58;;;0.40;;
40997;SDS011;26740;45.944;12.480;2023-07-13T06:00:11;5.07;;;0.93;;
40997;SDS011;26740;45.944;12.480;2023-07-13T06:02:36;3.58;;;0.57;;
40997;SDS011;26740;45.944;12.480;2023-07-13T06:05:02;3.45;;;0.85;;
40997;SDS011;26740;45.944;12.480;2023-07-13T06:07:27;3.03;;;0.30;;
40997;SDS011;26740;45.944;12.480;2023-07-13T06:09:53;2.03;;;0.40;;
40997;SDS011;26740;45.944;12.480;2023-07-13T06:12:18;4.70;;;0.50;;
40997;SDS011;26740;45.944;12.480;2023-07-13T06:14:43;2.65;;;0.30;;
40997;SDS011;26740;45.944;12.480;2023-07-13T06:17:09;1.45;;;0.50;;
40997;SDS011;26740;45.944;12.480;2023-07-13T06:19:34;2.97;;;0.65;;
40997;SDS011;26740;45.944;12.480;2023-07-13T06:22:00;4.22;;;0.60;;
40997;SDS011;26740;45.944;12.480;2023-07-13T06:24:25;3.00;;;0.77;;
40997;SDS011;26740;45.944;12.480;2023-07-13T06:26:51;3.22;;;1.05;;
40997;SDS011;26740;45.944;12.480;2023-07-13T06:29:16;3.08;;;0.57;;
40997;SDS011;26740;45.944;12.480;2023-07-13T06:31:42;1.90;;;0.40;;
40997;SDS011;26740;45.944;12.480;2023-07-13T06:34:07;2.22;;;0.52;;
40997;SDS011;26740;45.944;12.480;2023-07-13T06:36:33;5.18;;;0.50;;
40997;SDS011;26740;45.944;12.480;2023-07-13T06:38:58;4.18;;;0.60;;
40997;SDS011;26740;45.944;12.480;2023-07-13T06:41:23;2.38;;;0.57;;
40997;SDS011;26740;45.944;12.480;2023-07-13T06:43:51;1.45;;;0.45;;
40997;SDS011;26740;45.944;12.480;2023-07-13T06:46:16;3.47;;;0.43;;
40997;SDS011;26740;45.944;12.480;2023-07-13T06:48:42;1.08;;;0.40;;
40997;SDS011;26740;45.944;12.480;2023-07-13T06:51:07;1.90;;;0.40;;
40997;SDS011;26740;45.944;12.480;2023-07-13T06:53:33;1.08;;;0.40;;
40997;SDS011;26740;45.944;12.480;2023-07-13T06:55:58;4.38;;;0.80;;
40997;SDS011;26740;45.944;12.480;2023-07-13T06:58:24;2.33;;;0.47;;
40997;SDS011;26740;45.944;12.480;2023-07-13T07:00:52;2.45;;;0.60;;
40997;SDS011;26740;45.944;12.480;2023-07-13T07:03:17;1.85;;;0.40;;
40997;SDS011;26740;45.944;12.480;2023-07-13T07:05:43;4.82;;;0.30;;
40997;SDS011;26740;45.944;12.480;2023-07-13T07:08:08;0.63;;;0.20;;
40997;SDS011;26740;45.944;12.480;2023-07-13T07:10:34;1.80;;;0.50;;
40997;SDS011;26740;45.944;12.480;2023-07-13T07:13:00;2.67;;;0.40;;
40997;SDS011;26740;45.944;12.480;2023-07-13T07:15:25;2.05;;;0.55;;
40997;SDS011;26740;45.944;12.480;2023-07-13T07:17:51;3.20;;;0.80;;
40997;SDS011;26740;45.944;12.480;2023-07-13T07:20:16;1.42;;;0.32;;
40997;SDS011;26740;45.944;12.480;2023-07-13T07:22:42;1.75;;;0.30;;
40997;SDS011;26740;45.944;12.480;2023-07-13T07:25:07;3.80;;;0.50;;
40997;SDS011;26740;45.944;12.480;2023-07-13T07:27:33;2.72;;;0.57;;
40997;SDS011;26740;45.944;12.480;2023-07-13T07:29:58;2.22;;;0.40;;
40997;SDS011;26740;45.944;12.480;2023-07-13T07:32:24;2.30;;;0.55;;
40997;SDS011;26740;45.944;12.480;2023-07-13T07:34:49;1.17;;;0.30;;
40997;SDS011;26740;45.944;12.480;2023-07-13T07:37:15;3.38;;;0.50;;
40997;SDS011;26740;45.944;12.480;2023-07-13T07:39:40;1.90;;;0.43;;
40997;SDS011;26740;45.944;12.480;2023-07-13T07:42:06;1.23;;;0.40;;
40997;SDS011;26740;45.944;12.480;2023-07-13T07:44:31;2.42;;;0.50;;
40997;SDS011;26740;45.944;12.480;2023-07-13T07:46:57;2.70;;;0.50;;
40997;SDS011;26740;45.944;12.480;2023-07-13T07:49:22;4.85;;;0.73;;
40997;SDS011;26740;45.944;12.480;2023-07-13T07:51:48;2.67;;;0.47;;
40997;SDS011;26740;45.944;12.480;2023-07-13T07:54:13;2.67;;;1.13;;
40997;SDS011;26740;45.944;12.480;2023-07-13T07:56:39;2.25;;;0.82;;
40997;SDS011;26740;45.944;12.480;2023-07-13T07:59:05;2.85;;;0.60;;
40997;SDS011;26740;45.944;12.480;2023-07-13T08:01:30;0.70;;;0.30;;
40997;SDS011;26740;45.944;12.480;2023-07-13T08:03:56;2.45;;;0.52;;
40997;SDS011;26740;45.944;12.480;2023-07-13T08:06:21;3.97;;;0.50;;
40997;SDS011;26740;45.944;12.480;2023-07-13T08:08:47;2.03;;;0.20;;
40997;SDS011;26740;45.944;12.480;2023-07-13T08:11:12;1.27;;;0.50;;
40997;SDS011;26740;45.944;12.480;2023-07-13T08:13:38;4.07;;;0.60;;
40997;SDS011;26740;45.944;12.480;2023-07-13T08:16:04;2.03;;;0.30;;
40997;SDS011;26740;45.944;12.480;2023-07-13T08:18:30;2.97;;;0.40;;
40997;SDS011;26740;45.944;12.480;2023-07-13T08:20:55;3.22;;;0.50;;
40997;SDS011;26740;45.944;12.480;2023-07-13T08:23:24;2.22;;;0.30;;
40997;SDS011;26740;45.944;12.480;2023-07-13T08:25:53;0.70;;;0.20;;
40997;SDS011;26740;45.944;12.480;2023-07-13T08:28:19;2.63;;;0.52;;
40997;SDS011;26740;45.944;12.480;2023-07-13T08:30:45;3.58;;;0.25;;
40997;SDS011;26740;45.944;12.480;2023-07-13T08:33:17;1.00;;;0.30;;
40997;SDS011;26740;45.944;12.480;2023-07-13T08:35:45;1.88;;;0.38;;
40997;SDS011;26740;45.944;12.480;2023-07-13T08:38:10;0.88;;;0.52;;
40997;SDS011;26740;45.944;12.480;2023-07-13T08:40:35;1.48;;;0.50;;
40997;SDS011;26740;45.944;12.480;2023-07-13T08:43:01;1.02;;;0.32;;
40997;SDS011;26740;45.944;12.480;2023-07-13T08:50:37;1.52;;;0.30;;
40997;SDS011;26740;45.944;12.480;2023-07-13T08:53:05;2.28;;;0.43;;
40997;SDS011;26740;45.944;12.480;2023-07-13T08:55:31;2.38;;;0.55;;
40997;SDS011;26740;45.944;12.480;2023-07-13T08:58:03;1.75;;;0.40;;
40997;SDS011;26740;45.944;12.480;2023-07-13T09:00:44;4.43;;;0.50;;
40997;SDS011;26740;45.944;12.480;2023-07-13T09:03:24;3.00;;;0.50;;
40997;SDS011;26740;45.944;12.480;2023-07-13T09:05:57;1.85;;;0.38;;
40997;SDS011;26740;45.944;12.480;2023-07-13T09:08:32;2.13;;;0.40;;
40997;SDS011;26740;45.944;12.480;2023-07-13T09:11:44;2.00;;;0.40;;
40997;SDS011;26740;45.944;12.480;2023-07-13T09:14:45;2.75;;;0.63;;
40997;SDS011;26740;45.944;12.480;2023-07-13T09:16:38;2.33;;;0.30;;
40997;SDS011;26740;45.944;12.480;2023-07-13T09:19:05;1.55;;;0.40;;
40997;SDS011;26740;45.944;12.480;2023-07-13T09:21:33;2.15;;;0.65;;
40997;SDS011;26740;45.944;12.480;2023-07-13T09:24:42;1.42;;;0.28;;
40997;SDS011;26740;45.944;12.480;2023-07-13T09:26:47;1.70;;;0.30;;
40997;SDS011;26740;45.944;12.480;2023-07-13T09:29:14;2.78;;;0.52;;
40997;SDS011;26740;45.944;12.480;2023-07-13T09:31:45;7.05;;;1.33;;
40997;SDS011;26740;45.944;12.480;2023-07-13T09:34:13;2.63;;;0.60;;
40997;SDS011;26740;45.944;12.480;2023-07-13T09:36:38;3.20;;;0.70;;
40997;SDS011;26740;45.944;12.480;2023-07-13T09:41:33;1.63;;;0.50;;
40997;SDS011;26740;45.944;12.480;2023-07-13T09:46:34;3.63;;;1.10;;
40997;SDS011;26740;45.944;12.480;2023-07-13T09:49:00;6.75;;;1.13;;
40997;SDS011;26740;45.944;12.480;2023-07-13T09:51:25;3.13;;;0.80;;
40997;SDS011;26740;45.944;12.480;2023-07-13T09:53:50;4.13;;;0.52;;
40997;SDS011;26740;45.944;12.480;2023-07-13T09:56:19;1.20;;;0.38;;
40997;SDS011;26740;45.944;12.480;2023-07-13T09:58:45;3.60;;;0.40;;
40997;SDS011;26740;45.944;12.480;2023-07-13T10:01:10;3.85;;;0.60;;
40997;SDS011;26740;45.944;12.480;2023-07-13T10:03:36;2.70;;;0.85;;
40997;SDS011;26740;45.944;12.480;2023-07-13T10:06:11;3.50;;;1.15;;
40997;SDS011;26740;45.944;12.480;2023-07-13T10:08:37;3.88;;;0.80;;
40997;SDS011;26740;45.944;12.480;2023-07-13T10:13:39;3.05;;;1.00;;
40997;SDS011;26740;45.944;12.480;2023-07-13T10:16:06;0.75;;;0.32;;
40997;SDS011;26740;45.944;12.480;2023-07-13T10:18:38;2.47;;;0.50;;
40997;SDS011;26740;45.944;12.480;2023-07-13T10:21:09;2.20;;;0.38;;
40997;SDS011;26740;45.944;12.480;2023-07-13T10:23:35;4.68;;;0.50;;
40997;SDS011;26740;45.944;12.480;2023-07-13T10:26:01;2.75;;;0.43;;
40997;SDS011;26740;45.944;12.480;2023-07-13T10:28:31;1.55;;;0.40;;
40997;SDS011;26740;45.944;12.480;2023-07-13T10:30:58;2.95;;;0.75;;
40997;SDS011;26740;45.944;12.480;2023-07-13T10:33:25;2.55;;;0.40;;
40997;SDS011;26740;45.944;12.480;2023-07-13T10:35:54;2.58;;;0.50;;
40997;SDS011;26740;45.944;12.480;2023-07-13T10:38:22;2.95;;;1.17;;
40997;SDS011;26740;45.944;12.480;2023-07-13T10:40:56;2.75;;;1.13;;
40997;SDS011;26740;45.944;12.480;2023-07-13T10:43:27;2.38;;;0.77;;
40997;SDS011;26740;45.944;12.480;2023-07-13T10:45:53;4.03;;;0.60;;
40997;SDS011;26740;45.944;12.480;2023-07-13T10:48:19;3.33;;;0.65;;
40997;SDS011;26740;45.944;12.480;2023-07-13T10:50:46;2.17;;;0.50;;
40997;SDS011;26740;45.944;12.480;2023-07-13T10:54:10;3.83;;;0.60;;
40997;SDS011;26740;45.944;12.480;2023-07-13T10:56:03;4.78;;;0.88;;
40997;SDS011;26740;45.944;12.480;2023-07-13T10:58:37;2.97;;;0.70;;
40997;SDS011;26740;45.944;12.480;2023-07-13T11:01:07;1.75;;;0.60;;
40997;SDS011;26740;45.944;12.480;2023-07-13T11:03:37;1.80;;;0.40;;
40997;SDS011;26740;45.944;12.480;2023-07-13T11:06:11;2.67;;;0.55;;
40997;SDS011;26740;45.944;12.480;2023-07-13T11:08:38;2.58;;;0.50;;
40997;SDS011;26740;45.944;12.480;2023-07-13T11:11:06;1.17;;;0.40;;
40997;SDS011;26740;45.944;12.480;2023-07-13T11:19:26;2.35;;;0.40;;
40997;SDS011;26740;45.944;12.480;2023-07-13T11:21:31;1.02;;;0.52;;
40997;SDS011;26740;45.944;12.480;2023-07-13T11:29:17;4.60;;;1.02;;
40997;SDS011;26740;45.944;12.480;2023-07-13T11:31:53;3.80;;;0.38;;
40997;SDS011;26740;45.944;12.480;2023-07-13T11:34:52;1.63;;;0.40;;
40997;SDS011;26740;45.944;12.480;2023-07-13T11:37:11;1.85;;;0.40;;
40997;SDS011;26740;45.944;12.480;2023-07-13T11:39:37;4.25;;;0.57;;
40997;SDS011;26740;45.944;12.480;2023-07-13T11:42:10;1.60;;;0.50;;
40997;SDS011;26740;45.944;12.480;2023-07-13T11:44:41;1.95;;;0.50;;
40997;SDS011;26740;45.944;12.480;2023-07-13T11:47:10;1.10;;;0.52;;
40997;SDS011;26740;45.944;12.480;2023-07-13T11:49:48;3.83;;;0.90;;
40997;SDS011;26740;45.944;12.480;2023-07-13T11:52:20;6.40;;;0.50;;
40997;SDS011;26740;45.944;12.480;2023-07-13T11:54:50;2.95;;;0.40;;
40997;SDS011;26740;45.944;12.480;2023-07-13T11:57:30;1.55;;;0.73;;
40997;SDS011;26740;45.944;12.480;2023-07-13T11:59:56;1.40;;;0.85;;
40997;SDS011;26740;45.944;12.480;2023-07-13T12:02:30;0.80;;;0.32;;
40997;SDS011;26740;45.944;12.480;2023-07-13T12:04:57;1.73;;;0.50;;
40997;SDS011;26740;45.944;12.480;2023-07-13T12:07:23;3.05;;;0.55;;
40997;SDS011;26740;45.944;12.480;2023-07-13T12:09:48;6.25;;;0.43;;
40997;SDS011;26740;45.944;12.480;2023-07-13T12:12:18;3.88;;;0.60;;
40997;SDS011;26740;45.944;12.480;2023-07-13T12:14:44;3.92;;;0.68;;
40997;SDS011;26740;45.944;12.480;2023-07-13T12:17:18;3.70;;;0.80;;
40997;SDS011;26740;45.944;12.480;2023-07-13T12:19:44;3.42;;;0.82;;
40997;SDS011;26740;45.944;12.480;2023-07-13T12:22:12;2.97;;;0.90;;
40997;SDS011;26740;45.944;12.480;2023-07-13T12:24:38;1.63;;;0.60;;
40997;SDS011;26740;45.944;12.480;2023-07-13T12:27:05;2.13;;;0.70;;
40997;SDS011;26740;45.944;12.480;2023-07-13T12:29:31;2.35;;;0.50;;
40997;SDS011;26740;45.944;12.480;2023-07-13T12:31:57;2.90;;;0.65;;
40997;SDS011;26740;45.944;12.480;2023-07-13T12:34:24;4.45;;;0.93;;
40997;SDS011;26740;45.944;12.480;2023-07-13T12:36:59;5.88;;;0.77;;
40997;SDS011;26740;45.944;12.480;2023-07-13T12:42:00;3.75;;;0.70;;
40997;SDS011;26740;45.944;12.480;2023-07-13T12:44:34;8.80;;;1.05;;
40997;SDS011;26740;45.944;12.480;2023-07-13T12:47:06;5.78;;;1.05;;
40997;SDS011;26740;45.944;12.480;2023-07-13T12:49:39;2.20;;;0.85;;
40997;SDS011;26740;45.944;12.480;2023-07-13T12:54:30;2.40;;;0.90;;
40997;SDS011;26740;45.944;12.480;2023-07-13T12:56:56;2.17;;;0.68;;
40997;SDS011;26740;45.944;12.480;2023-07-13T12:59:23;14.95;;;0.95;;
40997;SDS011;26740;45.944;12.480;2023-07-13T13:01:51;4.13;;;0.60;;
40997;SDS011;26740;45.944;12.480;2023-07-13T13:04:16;3.15;;;0.93;;
40997;SDS011;26740;45.944;12.480;2023-07-13T13:06:46;2.28;;;0.80;;
40997;SDS011;26740;45.944;12.480;2023-07-13T13:09:12;4.68;;;0.63;;
40997;SDS011;26740;45.944;12.480;2023-07-13T13:11:38;4.65;;;0.98;;
40997;SDS011;26740;45.944;12.480;2023-07-13T13:14:05;6.38;;;0.75;;
40997;SDS011;26740;45.944;12.480;2023-07-13T13:16:35;1.92;;;1.10;;
40997;SDS011;26740;45.944;12.480;2023-07-13T13:19:05;3.90;;;1.17;;
40997;SDS011;26740;45.944;12.480;2023-07-13T13:21:35;2.70;;;0.73;;
40997;SDS011;26740;45.944;12.480;2023-07-13T13:24:00;3.75;;;0.90;;
40997;SDS011;26740;45.944;12.480;2023-07-13T13:26:25;3.65;;;0.60;;
40997;SDS011;26740;45.944;12.480;2023-07-13T13:28:51;6.68;;;1.25;;
40997;SDS011;26740;45.944;12.480;2023-07-13T13:31:16;5.30;;;1.08;;
40997;SDS011;26740;45.944;12.480;2023-07-13T13:33:43;4.32;;;1.10;;
40997;SDS011;26740;45.944;12.480;2023-07-13T13:36:20;4.03;;;0.77;;
40997;SDS011;26740;45.944;12.480;2023-07-13T13:38:47;5.53;;;1.00;;
40997;SDS011;26740;45.944;12.480;2023-07-13T13:41:13;5.45;;;1.55;;
40997;SDS011;26740;45.944;12.480;2023-07-13T13:43:39;6.72;;;1.02;;
40997;SDS011;26740;45.944;12.480;2023-07-13T13:46:10;5.63;;;1.83;;
40997;SDS011;26740;45.944;12.480;2023-07-13T13:48:36;4.38;;;1.17;;
40997;SDS011;26740;45.944;12.480;2023-07-13T13:51:06;5.20;;;1.00;;
40997;SDS011;26740;45.944;12.480;2023-07-13T13:53:35;2.78;;;0.80;;
40997;SDS011;26740;45.944;12.480;2023-07-13T13:56:00;2.97;;;0.95;;
40997;SDS011;26740;45.944;12.480;2023-07-13T13:58:26;6.07;;;1.38;;
40997;SDS011;26740;45.944;12.480;2023-07-13T14:00:51;2.38;;;1.00;;
40997;SDS011;26740;45.944;12.480;2023-07-13T14:03:18;3.03;;;1.00;;
40997;SDS011;26740;45.944;12.480;2023-07-13T14:05:43;5.68;;;1.25;;
40997;SDS011;26740;45.944;12.480;2023-07-13T14:08:12;6.40;;;1.27;;
40997;SDS011;26740;45.944;12.480;2023-07-13T14:10:38;2.90;;;1.05;;
40997;SDS011;26740;45.944;12.480;2023-07-13T14:13:03;3.53;;;1.15;;
40997;SDS011;26740;45.944;12.480;2023-07-13T14:15:31;2.92;;;0.88;;
40997;SDS011;26740;45.944;12.480;2023-07-13T14:17:56;6.20;;;0.93;;
40997;SDS011;26740;45.944;12.480;2023-07-13T14:20:23;1.70;;;0.98;;
40997;SDS011;26740;45.944;12.480;2023-07-13T14:22:49;4.85;;;1.08;;
40997;SDS011;26740;45.944;12.480;2023-07-13T14:25:15;4.20;;;1.38;;
40997;SDS011;26740;45.944;12.480;2023-07-13T14:27:41;6.88;;;1.83;;
40997;SDS011;26740;45.944;12.480;2023-07-13T14:30:14;5.18;;;1.08;;
40997;SDS011;26740;45.944;12.480;2023-07-13T14:32:40;3.15;;;1.00;;
40997;SDS011;26740;45.944;12.480;2023-07-13T14:35:07;2.55;;;1.27;;
40997;SDS011;26740;45.944;12.480;2023-07-13T14:37:33;1.73;;;1.02;;
40997;SDS011;26740;45.944;12.480;2023-07-13T14:39:59;6.28;;;1.17;;
40997;SDS011;26740;45.944;12.480;2023-07-13T14:42:24;5.38;;;1.30;;
40997;SDS011;26740;45.944;12.480;2023-07-13T14:44:50;3.10;;;1.25;;
40997;SDS011;26740;45.944;12.480;2023-07-13T14:47:15;3.80;;;1.25;;
40997;SDS011;26740;45.944;12.480;2023-07-13T14:49:42;6.15;;;1.38;;
40997;SDS011;26740;45.944;12.480;2023-07-13T14:52:18;3.42;;;1.20;;
40997;SDS011;26740;45.944;12.480;2023-07-13T14:54:45;3.75;;;1.33;;
40997;SDS011;26740;45.944;12.480;2023-07-13T14:57:11;3.75;;;2.10;;
40997;SDS011;26740;45.944;12.480;2023-07-13T14:59:37;2.95;;;0.98;;
40997;SDS011;26740;45.944;12.480;2023-07-13T15:02:03;6.07;;;1.38;;